Time;durP1;ratioP1;P1;durP2;ratioP2;P2;SDS_P1;SDS_P2;PMS_P1;PMS_P2;Temp;Humidity;BMP_temperature;BMP_pressure;BME280_temperature;BME280_humidity;BME280_pressure;Samples;Min_cycle;Max_cycle;Signal;HPM_P1;HPM_P2
2023/10/24 00:00:46;;;;;;;11.10;4.50;;;10.30;79.20;;;;;;4869192;29;20055;-89
2023/10/24 00:03:13;;;;;;;10.45;3.13;;;10.40;79.20;;;;;;4869130;29;20135;-89
2023/10/24 00:05:42;;;;;;;8.85;3.47;;;10.40;79.10;;;;;;4857391;29;20047;-89
2023/10/24 00:08:10;;;;;;;8.57;3.60;;;10.30;79.20;;;;;;4884462;29;20052;-90
2023/10/24 00:10:37;;;;;;;7.95;3.03;;;10.30;79.50;;;;;;4900076;29;20059;-89
2023/10/24 00:13:05;;;;;;;9.13;3.50;;;10.30;79.60;;;;;;4893436;29;20048;-89
2023/10/24 00:15:33;;;;;;;8.63;3.10;;;10.30;79.70;;;;;;4861132;29;20060;-90
2023/10/24 00:18:00;;;;;;;7.18;3.20;;;10.40;79.90;;;;;;4854894;29;20042;-89
2023/10/24 00:20:27;;;;;;;9.00;3.27;;;10.50;79.90;;;;;;4850159;29;20046;-89
2023/10/24 00:22:54;;;;;;;8.02;3.35;;;10.50;80.00;;;;;;4844428;29;20432;-89
2023/10/24 00:25:21;;;;;;;6.47;2.75;;;10.50;79.90;;;;;;4837846;29;20042;-89
2023/10/24 00:27:48;;;;;;;6.90;2.83;;;10.50;79.80;;;;;;4844108;29;20046;-88
2023/10/24 00:30:15;;;;;;;9.10;3.22;;;10.60;79.70;;;;;;4876288;29;20145;-89
2023/10/24 00:32:43;;;;;;;6.23;2.60;;;10.60;79.40;;;;;;4862267;29;20072;-89
2023/10/24 00:35:10;;;;;;;6.55;2.72;;;10.70;79.30;;;;;;4846875;29;20139;-89
2023/10/24 00:37:37;;;;;;;8.90;3.10;;;10.60;79.10;;;;;;4846792;29;20070;-89
2023/10/24 00:40:05;;;;;;;7.68;2.40;;;10.60;79.10;;;;;;4862189;29;20522;-89
2023/10/24 00:42:32;;;;;;;6.30;2.58;;;10.60;79.00;;;;;;4846776;29;20057;-89
2023/10/24 00:44:59;;;;;;;7.97;2.60;;;10.60;79.00;;;;;;4861994;29;20511;-89
2023/10/24 00:47:26;;;;;;;8.13;2.90;;;10.70;78.90;;;;;;4846983;29;20045;-89
2023/10/24 00:49:53;;;;;;;6.45;2.30;;;10.70;78.90;;;;;;4861099;29;20075;-89
2023/10/24 00:52:21;;;;;;;6.43;2.40;;;10.60;78.90;;;;;;4847067;29;20061;-90
2023/10/24 00:54:48;;;;;;;7.22;2.33;;;10.70;79.00;;;;;;4861788;29;20468;-89
2023/10/24 00:57:16;;;;;;;8.90;2.33;;;10.70;79.00;;;;;;4831304;29;20049;-89
2023/10/24 00:59:46;;;;;;;9.55;2.25;;;10.60;79.10;;;;;;4862304;29;20377;-89
2023/10/24 01:02:14;;;;;;;7.03;2.25;;;10.60;79.20;;;;;;4861819;29;20097;-89
2023/10/24 01:04:43;;;;;;;6.43;2.20;;;10.60;79.30;;;;;;4846674;29;20045;-89
2023/10/24 01:07:10;;;;;;;8.30;2.30;;;10.70;79.40;;;;;;4861642;29;20136;-89
2023/10/24 01:09:52;;;;;;;7.33;2.10;;;10.70;79.30;;;;;;4821557;29;20072;-88
2023/10/24 01:12:20;;;;;;;7.38;2.00;;;10.70;79.00;;;;;;4877110;29;20547;-88
2023/10/24 01:14:48;;;;;;;6.80;2.40;;;10.70;78.70;;;;;;4849284;29;20072;-89
2023/10/24 01:17:17;;;;;;;8.40;1.88;;;10.70;78.90;;;;;;4883012;29;20068;-88
2023/10/24 01:19:44;;;;;;;6.82;2.20;;;10.70;78.90;;;;;;4875958;29;20082;-88
2023/10/24 01:22:11;;;;;;;5.50;2.40;;;10.70;78.80;;;;;;4883117;29;20407;-88
2023/10/24 01:24:38;;;;;;;7.45;2.35;;;10.60;78.90;;;;;;4892411;29;20128;-88
2023/10/24 01:27:06;;;;;;;6.93;2.28;;;10.60;78.90;;;;;;4877600;29;20040;-89
2023/10/24 01:29:33;;;;;;;6.78;2.05;;;10.70;78.80;;;;;;4898220;29;20037;-88
2023/10/24 01:32:00;;;;;;;6.28;2.03;;;10.70;78.50;;;;;;4898492;29;20048;-88
2023/10/24 01:34:28;;;;;;;7.37;2.40;;;10.70;78.60;;;;;;4882897;29;20049;-90
2023/10/24 01:36:55;;;;;;;5.90;2.25;;;10.60;78.60;;;;;;4898593;29;20047;-89
2023/10/24 01:39:23;;;;;;;6.80;2.40;;;10.60;78.70;;;;;;4882547;29;20521;-88
2023/10/24 01:41:50;;;;;;;8.15;2.15;;;10.60;78.80;;;;;;4867557;29;20153;-89
2023/10/24 01:44:17;;;;;;;8.30;2.50;;;10.60;78.90;;;;;;4878955;29;20053;-88
2023/10/24 01:46:44;;;;;;;7.07;2.10;;;10.60;78.80;;;;;;4870485;29;20044;-88
2023/10/24 01:49:11;;;;;;;5.65;2.05;;;10.70;78.70;;;;;;4898156;29;20044;-89
2023/10/24 01:51:39;;;;;;;6.85;2.05;;;10.60;78.90;;;;;;4898651;29;20053;-89
2023/10/24 01:54:06;;;;;;;5.47;1.42;;;10.60;79.00;;;;;;4882875;29;20057;-89
2023/10/24 01:56:33;;;;;;;5.47;1.95;;;10.60;79.10;;;;;;4898378;29;20562;-88
2023/10/24 01:59:00;;;;;;;7.80;2.00;;;10.60;79.10;;;;;;4882692;29;20052;-88
2023/10/24 02:01:27;;;;;;;6.32;1.88;;;10.50;79.30;;;;;;4900308;29;20136;-89
2023/10/24 02:03:58;;;;;;;5.63;1.90;;;10.50;79.40;;;;;;4886388;29;20040;-89
2023/10/24 02:06:26;;;;;;;5.15;1.50;;;10.60;79.30;;;;;;4886345;29;20047;-89
2023/10/24 02:08:53;;;;;;;4.53;1.67;;;10.60;79.40;;;;;;4890544;29;20080;-88
2023/10/24 02:11:20;;;;;;;5.53;1.73;;;10.60;79.20;;;;;;4886213;29;20072;-89
2023/10/24 02:13:49;;;;;;;7.15;1.88;;;10.60;79.30;;;;;;4901682;29;20538;-89
2023/10/24 02:16:16;;;;;;;5.95;2.00;;;10.50;79.50;;;;;;4901682;29;20506;-89
2023/10/24 02:18:43;;;;;;;7.68;1.63;;;10.50;79.80;;;;;;4901381;29;20096;-89
2023/10/24 02:21:10;;;;;;;5.63;1.83;;;10.50;79.90;;;;;;4901822;29;20108;-89
2023/10/24 02:23:38;;;;;;;7.77;2.00;;;10.50;80.10;;;;;;4901615;29;20045;-89
2023/10/24 02:26:05;;;;;;;8.32;2.22;;;10.60;80.00;;;;;;4901374;29;20053;-88
2023/10/24 02:28:32;;;;;;;4.88;1.80;;;10.60;80.10;;;;;;4886392;29;20048;-89
2023/10/24 02:31:05;;;;;;;6.47;1.75;;;10.50;80.10;;;;;;4886196;29;20100;-88
2023/10/24 02:33:32;;;;;;;5.30;1.70;;;10.50;80.20;;;;;;4864412;29;20457;-88
2023/10/24 02:36:26;;;;;;;7.03;1.87;;;10.50;80.20;;;;;;4867646;29;20051;-89
2023/10/24 02:38:53;;;;;;;6.40;1.73;;;10.60;80.30;;;;;;4868763;29;20053;-89
2023/10/24 02:41:22;;;;;;;5.93;1.58;;;10.60;80.30;;;;;;4901379;29;20045;-88
2023/10/24 02:43:53;;;;;;;5.00;1.77;;;10.70;80.40;;;;;;4885400;29;20096;-88
2023/10/24 02:46:23;;;;;;;6.15;1.77;;;10.70;80.20;;;;;;4860159;29;20403;-88
2023/10/24 02:48:52;;;;;;;8.00;1.77;;;10.80;80.10;;;;;;4870390;29;20055;-89
2023/10/24 02:51:20;;;;;;;5.78;1.60;;;10.90;80.10;;;;;;4901275;29;20136;-88
2023/10/24 02:53:47;;;;;;;5.10;1.95;;;10.80;80.20;;;;;;4885387;29;20419;-88
2023/10/24 02:56:14;;;;;;;5.63;2.00;;;10.90;80.10;;;;;;4900983;29;20143;-88
2023/10/24 02:58:42;;;;;;;6.30;1.60;;;10.90;80.10;;;;;;4900797;29;20044;-89
2023/10/24 03:01:09;;;;;;;6.70;1.67;;;10.90;80.20;;;;;;4885431;29;20048;-88
2023/10/24 03:03:38;;;;;;;6.20;1.42;;;11.00;80.20;;;;;;4900673;29;20055;-88
2023/10/24 03:06:17;;;;;;;5.63;1.60;;;11.00;80.00;;;;;;4900776;29;20037;-89
2023/10/24 03:08:44;;;;;;;6.85;1.65;;;11.10;79.80;;;;;;4898054;29;20048;-89
2023/10/24 03:11:19;;;;;;;5.63;1.70;;;11.10;79.80;;;;;;4872302;29;20048;-89
2023/10/24 03:13:46;;;;;;;6.93;1.97;;;11.10;79.60;;;;;;4885038;29;20055;-89
2023/10/24 03:16:13;;;;;;;4.43;1.42;;;11.20;79.50;;;;;;4900208;29;20053;-89
2023/10/24 03:18:40;;;;;;;5.55;2.00;;;11.20;79.30;;;;;;4885172;29;20052;-88
2023/10/24 03:21:07;;;;;;;5.50;1.80;;;11.30;79.20;;;;;;4900568;29;20068;-89
2023/10/24 03:23:35;;;;;;;6.60;1.70;;;11.30;79.20;;;;;;4884914;29;20131;-89
2023/10/24 03:26:05;;;;;;;5.90;1.50;;;11.30;79.20;;;;;;4891503;29;20043;-88
2023/10/24 03:28:33;;;;;;;4.75;1.50;;;11.30;79.30;;;;;;4884456;29;20044;-89
2023/10/24 03:31:02;;;;;;;4.85;1.45;;;11.40;79.30;;;;;;4900220;29;20068;-88
2023/10/24 03:33:31;;;;;;;6.43;1.73;;;11.40;79.20;;;;;;4869323;29;20242;-89
2023/10/24 03:35:58;;;;;;;5.25;1.30;;;11.40;79.20;;;;;;4900488;29;20048;-88
2023/10/24 03:38:26;;;;;;;6.60;1.40;;;11.50;79.20;;;;;;4884534;29;20126;-89
2023/10/24 03:40:54;;;;;;;6.00;1.42;;;11.50;79.00;;;;;;4870360;29;20044;-90
2023/10/24 03:43:22;;;;;;;4.68;1.70;;;11.50;78.80;;;;;;4885235;29;20055;-92
2023/10/24 03:45:49;;;;;;;4.35;1.40;;;11.50;78.80;;;;;;4884919;29;20059;-92
2023/10/24 03:48:16;;;;;;;5.28;1.73;;;11.50;78.80;;;;;;4869440;29;20436;-92
2023/10/24 03:50:43;;;;;;;6.07;1.50;;;11.50;78.60;;;;;;4884904;29;20052;-91
2023/10/24 03:53:10;;;;;;;4.22;1.38;;;11.50;78.50;;;;;;4884618;29;20151;-91
2023/10/24 03:55:37;;;;;;;4.45;1.40;;;11.50;78.60;;;;;;4884687;29;20052;-90
2023/10/24 03:58:08;;;;;;;6.60;1.70;;;11.50;78.60;;;;;;4869230;29;20055;-94
2023/10/24 04:00:35;;;;;;;5.38;1.98;;;11.50;78.50;;;;;;4861120;29;20045;-91
2023/10/24 04:03:02;;;;;;;8.00;1.60;;;11.40;78.50;;;;;;4896511;29;20092;-87
2023/10/24 04:05:32;;;;;;;4.60;1.60;;;11.40;78.90;;;;;;4883221;29;20052;-91
2023/10/24 04:08:01;;;;;;;5.13;1.90;;;11.30;78.80;;;;;;4884948;29;20044;-90
2023/10/24 04:10:37;;;;;;;5.72;1.80;;;11.30;78.90;;;;;;4884272;29;20516;-90
2023/10/24 04:13:04;;;;;;;5.35;1.48;;;11.30;78.90;;;;;;4884790;29;20135;-90
2023/10/24 04:15:31;;;;;;;4.33;1.47;;;11.30;79.20;;;;;;4884502;29;20060;-90
2023/10/24 04:17:58;;;;;;;6.65;1.42;;;11.30;79.40;;;;;;4884685;29;20517;-90
2023/10/24 04:20:26;;;;;;;6.38;2.10;;;11.30;79.40;;;;;;4868968;29;20100;-91
2023/10/24 04:22:53;;;;;;;4.47;1.20;;;11.30;79.40;;;;;;4883813;29;20045;-91
2023/10/24 04:25:20;;;;;;;6.45;1.50;;;11.30;79.50;;;;;;4883681;29;20084;-90
2023/10/24 04:27:47;;;;;;;3.93;1.10;;;11.30;79.40;;;;;;4883991;29;20104;-90
2023/10/24 04:30:14;;;;;;;6.50;1.58;;;11.30;79.20;;;;;;4884288;29;20048;-90
2023/10/24 04:32:41;;;;;;;4.22;1.55;;;11.30;79.40;;;;;;4883870;29;20054;-91
2023/10/24 04:35:08;;;;;;;6.90;1.58;;;11.30;79.40;;;;;;4899279;29;20049;-92
2023/10/24 04:37:35;;;;;;;5.10;1.75;;;11.30;79.30;;;;;;4884998;29;20084;-91
2023/10/24 04:40:07;;;;;;;4.67;1.53;;;11.30;79.30;;;;;;4883765;29;20041;-92
2023/10/24 04:42:34;;;;;;;6.55;1.88;;;11.30;79.40;;;;;;4884091;29;20063;-91
2023/10/24 04:45:02;;;;;;;3.92;1.45;;;11.30;79.50;;;;;;4899337;29;20044;-92
2023/10/24 04:47:30;;;;;;;5.13;1.58;;;11.30;79.60;;;;;;4868700;29;20049;-92
2023/10/24 04:49:57;;;;;;;4.93;1.58;;;11.30;79.60;;;;;;4899089;29;20079;-92
2023/10/24 04:52:24;;;;;;;4.77;1.40;;;11.30;79.40;;;;;;4899414;29;20048;-92
2023/10/24 04:54:52;;;;;;;9.05;1.63;;;11.30;79.40;;;;;;4883820;29;20049;-91
2023/10/24 04:57:19;;;;;;;5.00;1.65;;;11.20;79.30;;;;;;4898949;29;20526;-92
2023/10/24 04:59:46;;;;;;;5.38;1.48;;;11.20;79.30;;;;;;4883398;29;20143;-92
2023/10/24 05:02:14;;;;;;;4.03;1.30;;;11.20;79.50;;;;;;4898873;29;20412;-93
2023/10/24 05:04:41;;;;;;;5.97;1.63;;;11.20;79.40;;;;;;4898790;29;20044;-92
2023/10/24 05:07:10;;;;;;;5.85;1.75;;;11.20;79.50;;;;;;4898784;29;20574;-93
2023/10/24 05:09:37;;;;;;;5.63;1.70;;;11.20;79.40;;;;;;4883481;29;20052;-92
2023/10/24 05:12:05;;;;;;;4.55;1.52;;;11.30;79.40;;;;;;4883674;29;20048;-92
2023/10/24 05:14:33;;;;;;;5.78;1.70;;;11.30;79.40;;;;;;4899109;29;20049;-92
2023/10/24 05:17:00;;;;;;;6.80;2.00;;;11.30;79.30;;;;;;4883363;29;20238;-93
2023/10/24 05:19:27;;;;;;;5.18;2.00;;;11.30;79.30;;;;;;4898808;29;20499;-95
2023/10/24 05:21:54;;;;;;;6.30;2.30;;;11.20;79.40;;;;;;4883666;29;20407;-87
2023/10/24 05:24:21;;;;;;;6.57;2.10;;;11.20;79.50;;;;;;4897090;29;20036;-86
2023/10/24 05:26:48;;;;;;;5.75;1.83;;;11.10;79.60;;;;;;4883914;29;20048;-89
2023/10/24 05:29:15;;;;;;;5.73;1.80;;;11.10;79.70;;;;;;4898671;29;20406;-91
2023/10/24 05:31:43;;;;;;;9.05;2.20;;;11.10;79.80;;;;;;4898699;29;20072;-91
2023/10/24 05:34:10;;;;;;;7.03;2.72;;;11.00;80.00;;;;;;4898901;29;20056;-90
2023/10/24 05:36:37;;;;;;;5.85;2.38;;;11.00;80.10;;;;;;4902534;29;20087;-91
2023/10/24 05:39:04;;;;;;;9.73;2.58;;;11.00;80.00;;;;;;4902829;29;20055;-93
2023/10/24 05:41:31;;;;;;;7.23;2.40;;;11.10;79.90;;;;;;4902473;29;20048;-92
2023/10/24 05:43:58;;;;;;;7.22;1.90;;;11.10;79.70;;;;;;4887165;29;20064;-91
2023/10/24 05:46:26;;;;;;;9.23;2.50;;;11.10;79.60;;;;;;4880910;29;20433;-92
2023/10/24 05:48:55;;;;;;;7.43;2.30;;;11.10;79.70;;;;;;4868575;29;20590;-91
2023/10/24 05:51:25;;;;;;;5.28;1.92;;;11.00;79.80;;;;;;4898848;29;20072;-91
2023/10/24 05:53:53;;;;;;;6.03;2.10;;;11.00;79.90;;;;;;4883743;29;20053;-91
2023/10/24 05:56:20;;;;;;;5.60;1.98;;;11.00;80.00;;;;;;4883692;29;20214;-91
2023/10/24 05:58:47;;;;;;;5.50;2.00;;;11.10;79.90;;;;;;4883622;29;20045;-91
2023/10/24 06:01:14;;;;;;;6.25;2.38;;;11.10;79.80;;;;;;4883520;29;20080;-91
2023/10/24 06:03:41;;;;;;;6.35;2.03;;;11.10;80.00;;;;;;4883427;29;20048;-92
2023/10/24 06:06:08;;;;;;;6.10;2.20;;;11.10;80.00;;;;;;4868117;29;20053;-92
2023/10/24 06:08:36;;;;;;;7.18;2.10;;;11.10;79.90;;;;;;4883633;29;20049;-91
2023/10/24 06:11:03;;;;;;;8.82;2.47;;;11.20;79.80;;;;;;4883591;29;20109;-91
2023/10/24 06:14:08;;;;;;;6.38;1.98;;;11.20;79.80;;;;;;4868777;29;20052;-91
2023/10/24 06:17:19;;;;;;;8.32;2.10;;;11.30;79.70;;;;;;4885217;29;20052;-90
2023/10/24 06:19:48;;;;;;;10.40;3.07;;;11.40;79.60;;;;;;4886627;29;20052;-91
2023/10/24 06:22:16;;;;;;;6.68;2.00;;;11.50;79.50;;;;;;4886434;29;20049;-92
2023/10/24 06:24:43;;;;;;;8.52;2.60;;;11.50;79.30;;;;;;4886577;29;20387;-92
2023/10/24 06:27:12;;;;;;;7.80;2.20;;;11.50;79.00;;;;;;4886293;29;20048;-93
2023/10/24 06:29:39;;;;;;;6.85;3.25;;;11.50;79.20;;;;;;4886095;29;20044;-91
2023/10/24 06:32:06;;;;;;;6.00;2.30;;;11.50;79.00;;;;;;4901535;29;20057;-91
2023/10/24 06:34:34;;;;;;;8.05;2.80;;;11.60;78.80;;;;;;4901607;29;20515;-91
2023/10/24 06:37:03;;;;;;;8.93;2.55;;;11.60;78.80;;;;;;4886068;29;20495;-91
2023/10/24 06:39:30;;;;;;;6.22;2.30;;;11.60;78.80;;;;;;4885946;29;20049;-91
2023/10/24 06:41:58;;;;;;;8.55;2.60;;;11.60;78.80;;;;;;4901422;29;20040;-92
2023/10/24 06:44:27;;;;;;;6.60;2.40;;;11.70;78.80;;;;;;4884902;29;20507;-92
2023/10/24 06:46:54;;;;;;;6.53;2.10;;;11.80;78.80;;;;;;4881627;29;20070;-91
2023/10/24 06:49:22;;;;;;;6.03;2.30;;;11.80;78.90;;;;;;4882413;29;20081;-92
2023/10/24 06:51:50;;;;;;;5.70;2.33;;;11.90;78.50;;;;;;4852212;29;20393;-92
2023/10/24 06:54:17;;;;;;;6.68;2.25;;;12.00;78.40;;;;;;4882658;29;20053;-91
2023/10/24 06:56:44;;;;;;;7.63;2.10;;;12.10;78.20;;;;;;4882546;29;20049;-91
2023/10/24 06:59:11;;;;;;;9.07;2.15;;;12.10;78.20;;;;;;4882246;29;20053;-92
2023/10/24 07:01:41;;;;;;;10.35;2.72;;;12.20;77.90;;;;;;4867440;29;20411;-91
2023/10/24 07:04:08;;;;;;;6.30;2.30;;;12.30;78.10;;;;;;4867252;29;20056;-91
2023/10/24 07:06:36;;;;;;;8.65;2.47;;;12.30;78.20;;;;;;4882144;29;20044;-91
2023/10/24 07:09:05;;;;;;;7.93;2.20;;;12.50;77.90;;;;;;4882387;29;20055;-91
2023/10/24 07:11:32;;;;;;;9.27;2.05;;;12.50;77.50;;;;;;4882373;29;20053;-91
2023/10/24 07:13:59;;;;;;;9.13;2.83;;;12.70;77.30;;;;;;4901083;29;20052;-91
2023/10/24 07:16:27;;;;;;;4.93;2.00;;;12.80;77.00;;;;;;4885759;29;20116;-91
2023/10/24 07:18:54;;;;;;;6.57;2.28;;;12.90;76.90;;;;;;4900776;29;20052;-92
2023/10/24 07:21:21;;;;;;;5.93;1.90;;;13.00;76.60;;;;;;4901030;29;20060;-91
2023/10/24 07:23:48;;;;;;;7.20;2.00;;;13.00;76.10;;;;;;4900891;29;20044;-92
2023/10/24 07:26:15;;;;;;;5.75;1.92;;;13.10;76.20;;;;;;4900657;29;20093;-92
2023/10/24 07:28:43;;;;;;;8.40;1.60;;;13.10;76.30;;;;;;4901031;29;20388;-92
2023/10/24 07:31:10;;;;;;;6.07;1.92;;;13.20;76.30;;;;;;4885079;29;20068;-91
2023/10/24 07:33:37;;;;;;;5.47;1.53;;;13.40;76.20;;;;;;4900699;29;20058;-92
2023/10/24 07:36:06;;;;;;;6.22;1.90;;;13.50;75.90;;;;;;4900517;29;20041;-91
2023/10/24 07:38:33;;;;;;;7.43;2.22;;;13.50;75.90;;;;;;4869591;29;20048;-91
2023/10/24 07:41:01;;;;;;;5.88;1.90;;;13.60;75.90;;;;;;4887316;29;20044;-91
2023/10/24 07:43:28;;;;;;;6.28;1.73;;;13.70;75.80;;;;;;4898738;29;20044;-89
2023/10/24 07:45:55;;;;;;;6.57;1.70;;;13.80;75.80;;;;;;4900177;29;20050;-92
2023/10/24 07:48:24;;;;;;;5.95;1.88;;;13.90;75.20;;;;;;4884872;29;20463;-91
2023/10/24 07:50:54;;;;;;;6.75;1.90;;;13.90;75.50;;;;;;4897239;29;20044;-91
2023/10/24 07:53:23;;;;;;;8.25;2.10;;;14.00;74.80;;;;;;4869329;29;20057;-90
2023/10/24 07:55:51;;;;;;;5.65;2.13;;;14.00;74.60;;;;;;4860536;29;20067;-92
2023/10/24 07:58:19;;;;;;;6.90;2.50;;;14.00;74.70;;;;;;4869431;29;20051;-91
2023/10/24 08:00:47;;;;;;;6.40;2.33;;;14.00;74.80;;;;;;4868916;29;20100;-91
2023/10/24 08:03:15;;;;;;;10.30;2.40;;;14.00;74.80;;;;;;4869127;29;20055;-91
2023/10/24 08:05:42;;;;;;;6.03;2.30;;;14.00;75.00;;;;;;4869017;29;20406;-91
2023/10/24 08:08:10;;;;;;;7.63;2.33;;;14.00;75.20;;;;;;4858642;29;20044;-91
2023/10/24 08:10:37;;;;;;;11.70;2.50;;;14.00;74.80;;;;;;4869101;29;20100;-91
2023/10/24 08:13:04;;;;;;;7.45;2.70;;;14.00;75.30;;;;;;4869097;29;20059;-90
2023/10/24 08:15:32;;;;;;;7.50;2.10;;;14.00;75.30;;;;;;4859310;29;20143;-90
2023/10/24 08:17:59;;;;;;;6.65;2.05;;;14.10;75.40;;;;;;4868916;29;20092;-91
2023/10/24 08:20:26;;;;;;;5.45;1.90;;;14.30;75.10;;;;;;4868798;29;20041;-91
2023/10/24 08:22:57;;;;;;;5.40;2.10;;;14.40;74.50;;;;;;4850484;29;20049;-91
2023/10/24 08:25:24;;;;;;;9.20;1.77;;;14.60;74.90;;;;;;4869059;29;20052;-91
2023/10/24 08:27:51;;;;;;;5.00;1.58;;;14.70;73.80;;;;;;4884355;29;20051;-91
2023/10/24 08:30:18;;;;;;;6.30;2.10;;;14.90;73.50;;;;;;4868916;29;20076;-92
2023/10/24 08:32:45;;;;;;;5.85;1.60;;;15.00;73.70;;;;;;4868886;29;20060;-91
2023/10/24 08:35:13;;;;;;;5.73;1.67;;;15.10;73.00;;;;;;4863737;29;20044;-91
2023/10/24 08:37:40;;;;;;;5.80;2.03;;;15.20;72.20;;;;;;4866118;29;20064;-90
2023/10/24 08:40:08;;;;;;;4.72;1.23;;;15.40;72.40;;;;;;4868333;29;20049;-90
2023/10/24 08:42:36;;;;;;;7.13;1.55;;;15.50;71.60;;;;;;4868293;29;20407;-92
2023/10/24 08:45:04;;;;;;;4.95;1.20;;;15.50;71.70;;;;;;4899230;29;20066;-91
2023/10/24 08:47:34;;;;;;;5.77;1.47;;;15.70;72.00;;;;;;4883838;29;20517;-91
2023/10/24 08:50:05;;;;;;;5.15;1.20;;;15.80;71.50;;;;;;4868492;29;20524;-92
2023/10/24 08:52:32;;;;;;;8.07;2.35;;;16.00;71.10;;;;;;4883602;29;20091;-92
2023/10/24 08:55:01;;;;;;;8.82;1.60;;;16.10;71.10;;;;;;4883594;29;20049;-91
2023/10/24 08:57:30;;;;;;;5.68;1.60;;;16.10;70.30;;;;;;4899097;29;20053;-92
2023/10/24 08:59:59;;;;;;;5.63;1.50;;;16.20;70.60;;;;;;4899163;29;20048;-92
2023/10/24 09:02:28;;;;;;;6.57;1.55;;;16.30;70.10;;;;;;4868411;29;20041;-92
2023/10/24 09:04:55;;;;;;;4.93;1.30;;;16.30;70.20;;;;;;4898907;29;20068;-91
2023/10/24 09:07:22;;;;;;;5.85;1.42;;;16.40;70.00;;;;;;4882493;29;20419;-91
2023/10/24 09:09:50;;;;;;;5.57;1.40;;;16.50;69.70;;;;;;4866573;29;20082;-91
2023/10/24 09:12:17;;;;;;;6.63;1.37;;;16.60;70.20;;;;;;4883268;29;20049;-91
2023/10/24 09:14:46;;;;;;;7.95;1.80;;;16.70;70.30;;;;;;4867579;29;20076;-90
2023/10/24 09:17:22;;;;;;;6.43;1.75;;;16.70;69.60;;;;;;4869001;29;20059;-91
2023/10/24 09:19:50;;;;;;;5.00;1.20;;;16.70;69.20;;;;;;4898364;29;20045;-91
2023/10/24 09:22:18;;;;;;;5.05;1.48;;;16.80;69.20;;;;;;4899004;29;20052;-92
2023/10/24 09:24:46;;;;;;;5.30;1.07;;;16.70;68.70;;;;;;4898629;29;20045;-92
2023/10/24 09:27:15;;;;;;;4.60;1.13;;;16.70;68.50;;;;;;4883423;29;20052;-92
2023/10/24 09:29:43;;;;;;;4.57;1.35;;;16.80;68.90;;;;;;4867946;29;20052;-91
2023/10/24 09:32:15;;;;;;;3.72;1.00;;;16.90;69.60;;;;;;4898521;29;20048;-93
2023/10/24 09:34:46;;;;;;;4.15;1.00;;;17.10;68.90;;;;;;4883179;29;20052;-91
2023/10/24 09:37:15;;;;;;;4.87;1.07;;;17.10;68.30;;;;;;4898664;29;20058;-92
2023/10/24 09:39:52;;;;;;;5.57;0.90;;;17.30;67.90;;;;;;4898424;29;20049;-91
2023/10/24 09:42:32;;;;;;;5.72;0.90;;;17.30;67.70;;;;;;4867825;29;20048;-90
2023/10/24 09:45:06;;;;;;;5.53;1.00;;;17.30;66.20;;;;;;4868435;29;20060;-91
2023/10/24 09:47:33;;;;;;;5.82;1.10;;;17.20;65.50;;;;;;4898198;29;20083;-90
2023/10/24 09:50:03;;;;;;;5.47;1.10;;;17.20;66.10;;;;;;4883812;29;20056;-92
2023/10/24 09:52:31;;;;;;;7.00;0.90;;;17.20;66.60;;;;;;4883345;29;20158;-92
2023/10/24 09:54:59;;;;;;;6.32;1.05;;;17.30;66.70;;;;;;4883104;29;20503;-90
2023/10/24 09:57:28;;;;;;;6.47;1.10;;;17.30;66.60;;;;;;4868038;29;20044;-92
2023/10/24 09:59:58;;;;;;;3.53;1.10;;;17.30;66.60;;;;;;4883408;29;20048;-93
2023/10/24 10:02:27;;;;;;;6.63;1.10;;;17.30;67.30;;;;;;4882961;29;20502;-93
2023/10/24 10:04:55;;;;;;;7.72;1.38;;;17.40;66.20;;;;;;4883217;29;20045;-93
2023/10/24 10:07:25;;;;;;;7.88;1.27;;;17.50;66.40;;;;;;4882997;29;20135;-91
2023/10/24 10:09:54;;;;;;;5.85;1.30;;;17.50;66.40;;;;;;4883234;29;20391;-92
2023/10/24 10:12:21;;;;;;;9.35;1.60;;;17.50;65.70;;;;;;4883135;29;20147;-91
2023/10/24 10:15:03;;;;;;;4.23;1.17;;;17.50;66.60;;;;;;4880494;29;20049;-90
2023/10/24 10:17:53;;;;;;;9.10;1.90;;;17.50;66.40;;;;;;4885789;29;20048;-91
2023/10/24 10:20:39;;;;;;;5.22;1.20;;;17.60;66.40;;;;;;4892983;29;20128;-91
2023/10/24 10:23:14;;;;;;;6.57;1.17;;;17.60;65.90;;;;;;4889156;29;20059;-91
2023/10/24 10:26:18;;;;;;;7.63;1.50;;;17.70;65.20;;;;;;4901760;29;20045;-91
2023/10/24 10:29:10;;;;;;;4.67;1.00;;;17.70;65.80;;;;;;4901573;29;20080;-91
2023/10/24 10:32:01;;;;;;;4.35;1.30;;;17.70;65.60;;;;;;4872838;29;20057;-92
2023/10/24 10:34:51;;;;;;;7.57;1.20;;;17.80;65.80;;;;;;4885940;29;20131;-91
2023/10/24 10:37:20;;;;;;;8.27;1.13;;;17.90;65.50;;;;;;4885785;29;20057;-90
2023/10/24 10:40:17;;;;;;;4.80;1.20;;;17.90;66.20;;;;;;4886225;29;20112;-90
2023/10/24 10:42:49;;;;;;;4.73;0.93;;;18.00;65.90;;;;;;4863861;29;20044;-92
2023/10/24 10:45:23;;;;;;;4.05;0.95;;;18.00;64.80;;;;;;4885990;29;20048;-92
2023/10/24 10:47:52;;;;;;;6.53;1.20;;;18.00;65.50;;;;;;4870787;29;20053;-91
2023/10/24 10:50:27;;;;;;;4.63;1.13;;;18.10;66.10;;;;;;4900952;29;20136;-92
2023/10/24 10:53:07;;;;;;;3.60;1.17;;;18.20;66.00;;;;;;4870426;29;20055;-91
2023/10/24 10:56:14;;;;;;;6.10;1.33;;;18.20;64.30;;;;;;4885496;29;20087;-92
2023/10/24 10:59:07;;;;;;;6.45;1.30;;;18.20;64.50;;;;;;4870401;29;20049;-92
2023/10/24 11:02:00;;;;;;;7.30;1.48;;;18.30;64.20;;;;;;4885620;29;20052;-91
2023/10/24 11:04:28;;;;;;;7.68;1.25;;;18.30;63.40;;;;;;4870294;29;20045;-91
2023/10/24 11:06:59;;;;;;;6.80;1.30;;;18.40;63.30;;;;;;4901858;29;20049;-91
2023/10/24 11:09:37;;;;;;;5.57;1.03;;;18.40;63.50;;;;;;4870015;29;20044;-91
2023/10/24 11:12:25;;;;;;;6.07;1.30;;;18.50;62.50;;;;;;4900831;29;20045;-92
2023/10/24 11:15:13;;;;;;;6.28;1.15;;;18.50;63.40;;;;;;4869945;29;20490;-91
2023/10/24 11:17:40;;;;;;;5.65;0.93;;;18.60;62.60;;;;;;4901161;29;20048;-91
2023/10/24 11:20:09;;;;;;;6.97;1.00;;;18.60;62.60;;;;;;4870049;29;20118;-91
2023/10/24 11:22:39;;;;;;;10.50;1.30;;;18.70;62.10;;;;;;4901195;29;20067;-91
2023/10/24 11:25:11;;;;;;;5.30;1.02;;;18.80;61.60;;;;;;4901102;29;20049;-91
2023/10/24 11:27:39;;;;;;;5.60;1.15;;;18.70;61.60;;;;;;4869920;29;20136;-91
2023/10/24 11:30:07;;;;;;;4.32;0.95;;;18.80;61.50;;;;;;4900635;29;20058;-91
2023/10/24 11:32:35;;;;;;;5.03;1.35;;;18.80;61.80;;;;;;4900335;29;20056;-92
2023/10/24 11:35:05;;;;;;;5.70;1.10;;;18.80;61.40;;;;;;4900510;29;20056;-92
2023/10/24 11:37:33;;;;;;;5.10;1.10;;;18.80;61.50;;;;;;4885309;29;20147;-90
2023/10/24 11:40:06;;;;;;;6.32;1.20;;;18.90;61.30;;;;;;4869813;29;20049;-91
2023/10/24 11:42:34;;;;;;;4.97;1.45;;;19.00;61.70;;;;;;4900672;29;20048;-94
2023/10/24 11:45:01;;;;;;;4.85;1.15;;;19.00;61.70;;;;;;4900252;29;20078;-92
2023/10/24 11:47:30;;;;;;;4.70;1.40;;;19.10;60.90;;;;;;4901113;29;20546;-92
2023/10/24 11:49:59;;;;;;;4.65;1.25;;;19.10;62.30;;;;;;4900285;29;20147;-92
2023/10/24 11:52:27;;;;;;;8.27;1.75;;;19.10;60.80;;;;;;4884751;29;20048;-91
2023/10/24 11:54:54;;;;;;;7.72;1.90;;;19.10;61.50;;;;;;4885166;29;20514;-91
2023/10/24 11:57:25;;;;;;;3.95;1.30;;;19.00;61.90;;;;;;4884708;29;20104;-92
2023/10/24 11:59:53;;;;;;;8.20;1.77;;;19.00;61.30;;;;;;4900008;29;20048;-93
2023/10/24 12:02:21;;;;;;;5.47;1.20;;;19.00;62.10;;;;;;4899840;29;20098;-92
2023/10/24 12:04:50;;;;;;;6.47;1.20;;;19.00;62.00;;;;;;4900501;29;20090;-91
2023/10/24 12:07:18;;;;;;;5.03;1.10;;;19.00;61.50;;;;;;4900001;29;20507;-92
2023/10/24 12:09:45;;;;;;;5.85;1.20;;;18.90;62.30;;;;;;4899735;29;20064;-92
2023/10/24 12:12:13;;;;;;;7.27;1.30;;;18.90;62.70;;;;;;4885426;29;20052;-92
2023/10/24 12:14:44;;;;;;;4.43;1.45;;;18.90;62.50;;;;;;4899443;29;20563;-92
2023/10/24 12:17:11;;;;;;;7.85;1.50;;;18.90;62.70;;;;;;4900027;29;20084;-93
2023/10/24 12:19:39;;;;;;;6.13;1.75;;;19.00;63.00;;;;;;4899749;29;20514;-91
2023/10/24 12:22:07;;;;;;;5.90;1.38;;;19.00;63.20;;;;;;4884718;29;20053;-92
2023/10/24 12:24:34;;;;;;;7.93;2.00;;;18.90;62.50;;;;;;4884329;29;20044;-92
2023/10/24 12:27:01;;;;;;;5.97;1.40;;;18.90;63.00;;;;;;4899683;29;20049;-93
2023/10/24 12:29:31;;;;;;;6.72;1.65;;;18.90;63.30;;;;;;4900234;29;20073;-92
2023/10/24 12:31:58;;;;;;;5.68;1.42;;;19.00;63.00;;;;;;4883937;29;20096;-92
2023/10/24 12:34:26;;;;;;;5.25;1.17;;;19.00;63.40;;;;;;4899628;29;20384;-93
2023/10/24 12:36:56;;;;;;;6.07;2.10;;;19.00;63.10;;;;;;4899669;29;20044;-90
2023/10/24 12:39:24;;;;;;;6.57;1.77;;;19.00;62.90;;;;;;4894958;29;20053;-93
2023/10/24 12:41:51;;;;;;;6.47;1.95;;;19.00;63.20;;;;;;4865877;29;20049;-93
2023/10/24 12:44:20;;;;;;;7.03;1.90;;;18.90;63.00;;;;;;4880215;29;20057;-93
2023/10/24 12:46:47;;;;;;;5.78;1.90;;;18.90;63.50;;;;;;4880829;29;20091;-93
2023/10/24 12:49:16;;;;;;;6.97;2.00;;;18.90;63.60;;;;;;4865554;29;20073;-92
2023/10/24 12:51:43;;;;;;;6.30;2.03;;;18.90;63.00;;;;;;4880761;29;20049;-93
2023/10/24 12:54:10;;;;;;;7.28;2.65;;;18.90;62.90;;;;;;4865255;29;20056;-92
2023/10/24 12:56:38;;;;;;;6.68;2.58;;;18.80;63.30;;;;;;4865589;29;20084;-93